Time;durP1;ratioP1;P1;durP2;ratioP2;P2;SDS_P1;SDS_P2;PMS_P1;PMS_P2;Temp;Humidity;BMP_temperature;BMP_pressure;BME280_temperature;BME280_humidity;BME280_pressure;Samples;Min_cycle;Max_cycle;Signal;HPM_P1;HPM_P2
2023/08/19 00:24:25;;;;;;;13.60;3.92;;;;;;;19.84;98.84;100445.69;5604129;23;20055;-72
2023/08/19 00:27:33;;;;;;;11.40;4.18;;;;;;;19.80;99.15;100444.28;4878692;29;20077;-72
2023/08/19 00:30:51;;;;;;;9.20;3.10;;;;;;;19.84;99.07;100450.97;4876464;29;20047;-73
2023/08/19 00:34:00;;;;;;;9.82;3.50;;;;;;;19.87;98.58;100440.09;4878499;29;20107;-72
2023/08/19 00:37:11;;;;;;;15.25;4.80;;;;;;;19.82;99.09;100441.50;4879463;29;20048;-73
2023/08/19 00:40:18;;;;;;;12.30;3.15;;;;;;;19.80;98.84;100438.16;4879174;29;20047;-72
2023/08/19 00:43:23;;;;;;;14.20;3.80;;;;;;;19.78;99.18;100446.25;4878246;29;20438;-72
2023/08/19 00:46:26;;;;;;;7.60;3.78;;;;;;;19.82;98.91;100444.16;4879020;29;20509;-72
2023/08/19 00:49:30;;;;;;;11.82;3.55;;;;;;;19.83;98.89;100437.88;4878215;29;20100;-73
2023/08/19 00:52:34;;;;;;;10.27;3.45;;;;;;;19.78;98.97;100446.25;4878323;29;20521;-72
2023/08/19 00:55:38;;;;;;;8.43;3.28;;;;;;;19.78;98.89;100450.72;4878543;29;20052;-72
2023/08/19 00:58:44;;;;;;;11.60;4.25;;;;;;;19.69;99.61;100445.28;4879153;29;20105;-72
2023/08/19 01:01:47;;;;;;;11.60;3.40;;;;;;;19.67;99.65;100444.59;4867660;29;20056;-73
2023/08/19 01:04:51;;;;;;;12.73;4.25;;;;;;;19.67;99.75;100444.59;4878977;29;20052;-73
2023/08/19 01:07:58;;;;;;;19.95;3.45;;;;;;;19.68;99.76;100446.25;4888875;29;20051;-73
2023/08/19 01:11:45;;;;;;;19.85;4.00;;;;;;;19.65;99.93;100441.22;4879196;29;20063;-73
2023/08/19 01:15:05;;;;;;;11.65;2.80;;;;;;;19.69;99.59;100436.50;4878846;29;20427;-73
2023/08/19 01:18:09;;;;;;;8.68;3.10;;;;;;;19.67;99.55;100436.63;4879049;29;20091;-73
2023/08/19 01:21:12;;;;;;;15.73;3.58;;;;;;;19.66;99.29;100432.31;4878770;29;20108;-72
2023/08/19 01:24:20;;;;;;;14.43;4.18;;;;;;;19.65;99.30;100430.63;4877903;29;20471;-73
2023/08/19 01:27:26;;;;;;;14.82;3.35;;;;;;;19.66;99.17;100429.66;4878254;29;20161;-73
2023/08/19 01:30:33;;;;;;;16.20;4.60;;;;;;;19.60;98.97;100435.50;4877202;29;20542;-73
2023/08/19 01:33:37;;;;;;;12.70;3.72;;;;;;;19.56;99.67;100431.44;4877752;29;20114;-72
2023/08/19 01:39:53;;;;;;;14.73;3.35;;;;;;;19.47;99.79;100437.59;5059977;23;20052;-72
2023/08/19 01:42:59;;;;;;;11.25;3.67;;;;;;;19.43;100.00;100438.81;4923612;29;20054;-72
2023/08/19 01:46:03;;;;;;;14.73;3.53;;;;;;;19.42;100.00;100439.81;4935193;29;20071;-72
2023/08/19 01:49:06;;;;;;;13.13;4.15;;;;;;;19.41;99.59;100433.69;4934950;29;20424;-72
2023/08/19 01:52:14;;;;;;;17.25;3.47;;;;;;;19.32;99.91;100437.16;4923256;29;20511;-72
2023/08/19 01:55:17;;;;;;;10.00;3.00;;;;;;;19.32;100.00;100444.28;4923428;29;20139;-72
2023/08/19 01:58:21;;;;;;;16.80;3.90;;;;;;;19.35;99.91;100444.00;4937099;29;20050;-72
2023/08/19 02:01:26;;;;;;;14.80;4.15;;;;;;;19.31;99.54;100442.63;4926765;29;20062;-72
2023/08/19 02:04:30;;;;;;;13.43;3.70;;;;;;;19.25;100.00;100450.13;4926748;29;20050;-72
2023/08/19 02:07:33;;;;;;;11.50;3.95;;;;;;;19.28;99.69;100444.56;4938324;29;20138;-72
2023/08/19 02:10:37;;;;;;;12.15;2.97;;;;;;;19.25;99.98;100444.00;4926432;29;20087;-72
2023/08/19 02:13:40;;;;;;;13.27;3.72;;;;;;;19.29;99.50;100448.88;4926290;29;20058;-72
2023/08/19 02:16:43;;;;;;;11.68;2.78;;;;;;;19.32;99.28;100444.28;4938371;29;20082;-72
2023/08/19 02:19:47;;;;;;;11.57;3.30;;;;;;;19.31;99.40;100445.25;4926158;29;20058;-73
2023/08/19 02:22:50;;;;;;;10.70;3.13;;;;;;;19.31;99.23;100442.63;4937995;29;20074;-73
2023/08/19 02:25:54;;;;;;;16.17;3.25;;;;;;;19.26;99.60;100446.50;4926207;29;20160;-73
2023/08/19 02:28:58;;;;;;;8.95;2.97;;;;;;;19.24;99.97;100443.16;4937801;29;20523;-72
2023/08/19 02:32:01;;;;;;;13.40;3.92;;;;;;;19.28;100.00;100455.16;4937819;29;20138;-73
2023/08/19 02:35:05;;;;;;;10.05;3.13;;;;;;;19.31;99.88;100447.91;4937771;29;20046;-72
2023/08/19 02:38:08;;;;;;;13.48;3.92;;;;;;;19.24;100.00;100443.16;4922100;29;20042;-72
2023/08/19 02:45:35;;;;;;;14.18;3.15;;;;;;;19.26;100.00;100433.25;4877689;29;20051;-72
2023/08/19 02:48:39;;;;;;;10.65;3.15;;;;;;;19.23;100.00;100435.34;4874550;29;20107;-72
2023/08/19 02:51:42;;;;;;;8.50;3.15;;;;;;;19.26;100.00;100435.88;4867854;29;20564;-72
2023/08/19 02:54:46;;;;;;;14.95;4.72;;;;;;;19.25;100.00;100428.94;4871027;29;20044;-72
2023/08/19 02:57:50;;;;;;;10.07;3.83;;;;;;;19.21;100.00;100427.53;4870680;29;20110;-72
2023/08/19 03:00:53;;;;;;;16.88;3.28;;;;;;;19.20;100.00;100430.31;4881596;29;20084;-72
2023/08/19 03:03:56;;;;;;;9.93;3.17;;;;;;;19.23;100.00;100444.13;4869204;29;20458;-72
2023/08/19 03:06:59;;;;;;;12.95;3.70;;;;;;;19.20;100.00;100440.91;4870974;29;20052;-72
2023/08/19 03:10:04;;;;;;;14.88;3.83;;;;;;;19.17;100.00;100430.59;4872001;29;20091;-72
2023/08/19 03:13:08;;;;;;;11.55;3.15;;;;;;;19.20;100.00;100444.41;4870083;29;20478;-72
2023/08/19 03:16:11;;;;;;;14.60;3.20;;;;;;;19.13;100.00;100437.97;4873190;29;20121;-72
2023/08/19 03:19:15;;;;;;;15.70;3.20;;;;;;;19.15;100.00;100438.69;4871443;29;20195;-72
2023/08/19 03:22:19;;;;;;;10.90;3.00;;;;;;;19.19;100.00;100428.66;4868983;29;20056;-72
2023/08/19 03:25:23;;;;;;;17.67;3.47;;;;;;;19.18;100.00;100432.28;4869979;29;20056;-72
2023/08/19 03:28:26;;;;;;;9.80;3.00;;;;;;;19.13;100.00;100423.88;4870475;29;20423;-72
2023/08/19 03:31:29;;;;;;;11.48;3.35;;;;;;;19.15;100.00;100432.56;4870054;29;20052;-72
2023/08/19 03:34:33;;;;;;;15.73;3.45;;;;;;;19.13;100.00;100424.72;4870589;29;20531;-72
2023/08/19 03:37:36;;;;;;;11.45;3.22;;;;;;;19.13;100.00;100426.53;4868437;29;20420;-72
2023/08/19 03:40:40;;;;;;;12.27;3.65;;;;;;;19.12;100.00;100425.72;4870309;29;20092;-74
2023/08/19 03:43:43;;;;;;;11.30;3.17;;;;;;;19.14;100.00;100429.03;4871817;29;20076;-72
2023/08/19 03:46:46;;;;;;;9.60;3.50;;;;;;;19.11;100.00;100428.47;4888866;29;20059;-72
2023/08/19 03:49:50;;;;;;;7.35;2.78;;;;;;;19.04;100.00;100422.91;4875831;29;20148;-73
2023/08/19 03:52:53;;;;;;;10.23;2.85;;;;;;;18.98;100.00;100415.50;4889606;29;20136;-73
2023/08/19 03:55:56;;;;;;;12.75;3.38;;;;;;;18.96;100.00;100417.47;4889587;29;20108;-73
2023/08/19 03:58:59;;;;;;;12.02;3.45;;;;;;;18.93;100.00;100412.44;4887683;29;20048;-73
2023/08/19 04:02:03;;;;;;;13.95;3.33;;;;;;;18.96;100.00;100420.09;4875261;29;20076;-72
2023/08/19 04:05:09;;;;;;;13.32;3.30;;;;;;;18.95;100.00;100410.47;4864047;29;20051;-73
2023/08/19 04:08:12;;;;;;;9.73;3.17;;;;;;;18.92;100.00;100406.31;4885921;29;20047;-72
2023/08/19 04:11:16;;;;;;;12.35;3.10;;;;;;;18.87;100.00;100407.69;4898168;29;20051;-72
2023/08/19 04:14:20;;;;;;;7.35;2.80;;;;;;;18.89;100.00;100405.72;4898181;29;20059;-72
2023/08/19 04:17:23;;;;;;;18.52;3.15;;;;;;;18.82;100.00;100405.41;4897304;29;20462;-72
2023/08/19 04:20:27;;;;;;;9.48;2.88;;;;;;;18.77;100.00;100411.13;4895230;29;20136;-72
2023/08/19 04:23:32;;;;;;;12.13;3.53;;;;;;;18.83;100.00;100401.81;4884455;29;20076;-72
2023/08/19 04:26:35;;;;;;;10.80;3.10;;;;;;;18.78;100.00;100399.56;4884098;29;20090;-72
2023/08/19 04:29:38;;;;;;;11.70;3.65;;;;;;;18.75;100.00;100410.44;4883312;29;20064;-73
2023/08/19 04:32:42;;;;;;;18.33;4.60;;;;;;;18.68;100.00;100413.72;4884301;29;20064;-73
2023/08/19 04:35:47;;;;;;;7.65;3.33;;;;;;;18.66;100.00;100416.50;4884746;29;20059;-72
2023/08/19 04:38:51;;;;;;;8.80;3.20;;;;;;;18.68;100.00;100419.84;4884105;29;20652;-72
2023/08/19 04:41:55;;;;;;;10.60;3.15;;;;;;;18.69;100.00;100426.81;4884442;29;20047;-69
2023/08/19 04:44:59;;;;;;;13.18;3.28;;;;;;;18.68;100.00;100435.75;4883774;29;20051;-69
2023/08/19 04:48:06;;;;;;;9.38;3.28;;;;;;;18.68;100.00;100435.75;4884288;29;20546;-69
2023/08/19 04:51:10;;;;;;;11.75;2.88;;;;;;;18.77;100.00;100431.50;4884001;29;20051;-69
2023/08/19 04:54:13;;;;;;;11.57;3.00;;;;;;;18.77;100.00;100442.94;4884802;29;20063;-69
2023/08/19 04:57:16;;;;;;;13.77;3.13;;;;;;;18.83;100.00;100448.66;4895760;29;20533;-69
2023/08/19 05:00:20;;;;;;;10.57;3.33;;;;;;;18.94;100.00;100441.44;4884113;29;20184;-70
2023/08/19 05:03:23;;;;;;;7.85;2.80;;;;;;;18.93;100.00;100449.53;4895948;29;20496;-69
2023/08/19 05:06:26;;;;;;;9.38;3.63;;;;;;;18.84;100.00;100442.38;4884296;29;20072;-68
2023/08/19 05:09:29;;;;;;;11.23;3.15;;;;;;;18.88;100.00;100439.31;4883488;29;20522;-67
2023/08/19 05:12:33;;;;;;;19.77;3.85;;;;;;;18.86;100.00;100451.88;4884448;29;20060;-69
2023/08/19 05:15:38;;;;;;;7.40;3.00;;;;;;;18.80;100.00;100452.41;4884290;29;20131;-66
2023/08/19 05:18:41;;;;;;;11.25;2.85;;;;;;;18.85;100.00;100452.00;4883939;29;20169;-67
2023/08/19 05:21:45;;;;;;;15.18;3.38;;;;;;;18.83;100.00;100452.16;4896040;29;20052;-66
2023/08/19 05:24:49;;;;;;;17.33;3.38;;;;;;;18.83;100.00;100464.56;4896106;29;20047;-67
2023/08/19 05:27:52;;;;;;;11.57;2.80;;;;;;;18.86;100.00;100469.56;4895818;29;20103;-69
2023/08/19 05:30:55;;;;;;;10.75;3.42;;;;;;;18.89;100.00;100464.00;4894810;29;20043;-71
2023/08/19 05:33:59;;;;;;;9.57;3.42;;;;;;;18.88;100.00;100478.22;4898067;29;20059;-69
2023/08/19 05:37:05;;;;;;;9.63;2.85;;;;;;;18.84;100.00;100477.66;4899571;29;20142;-68
2023/08/19 05:40:09;;;;;;;18.50;3.28;;;;;;;18.81;100.00;100478.75;4899184;29;20111;-70
2023/08/19 05:43:12;;;;;;;8.10;2.95;;;;;;;18.87;100.00;100479.22;4898935;29;20207;-69
2023/08/19 05:46:16;;;;;;;9.05;3.03;;;;;;;18.87;100.00;100488.00;4898252;29;20055;-71
2023/08/19 05:49:19;;;;;;;11.02;3.53;;;;;;;18.89;100.00;100496.66;4898293;29;20139;-73
2023/08/19 05:52:22;;;;;;;7.68;3.10;;;;;;;18.89;100.00;100487.84;4899004;29;20052;-70
2023/08/19 05:55:25;;;;;;;12.98;4.13;;;;;;;18.94;100.00;100489.13;4899255;29;20063;-73
2023/08/19 05:58:29;;;;;;;11.45;3.90;;;;;;;18.98;100.00;100489.69;4898254;29;20158;-71
2023/08/19 06:01:32;;;;;;;17.08;3.53;;;;;;;19.05;100.00;100485.53;4898755;29;20068;-69
2023/08/19 06:04:35;;;;;;;14.80;3.80;;;;;;;19.14;100.00;100494.47;4898651;29;20119;-70
2023/08/19 06:07:40;;;;;;;7.82;3.10;;;;;;;19.23;100.00;100489.19;4885578;29;20061;-70
2023/08/19 06:11:00;;;;;;;11.60;3.70;;;;;;;19.27;100.00;100490.59;4898020;29;20111;-70
2023/08/19 06:14:03;;;;;;;14.60;3.53;;;;;;;19.32;100.00;100498.13;4898084;29;20113;-68
2023/08/19 06:17:06;;;;;;;6.45;2.58;;;;;;;19.38;100.00;100496.75;4898739;29;20051;-71
2023/08/19 06:20:10;;;;;;;9.98;3.40;;;;;;;19.43;100.00;100505.13;4897037;29;20055;-70
2023/08/19 06:23:13;;;;;;;12.63;4.03;;;;;;;19.45;100.00;100501.34;4896567;29;20047;-71
2023/08/19 06:26:16;;;;;;;16.38;3.75;;;;;;;19.50;100.00;100495.66;4897086;29;20061;-70
2023/08/19 06:29:20;;;;;;;11.35;3.50;;;;;;;19.58;100.00;100503.75;4896963;29;20051;-70
2023/08/19 06:32:23;;;;;;;12.25;3.78;;;;;;;19.71;100.00;100506.16;4897219;29;20108;-71
2023/08/19 06:35:27;;;;;;;14.57;4.25;;;;;;;19.74;100.00;100514.66;4897831;29;20363;-70
2023/08/19 06:38:30;;;;;;;13.32;3.85;;;;;;;19.84;100.00;100505.88;4898022;29;20079;-70
2023/08/19 06:41:38;;;;;;;9.40;4.05;;;;;;;19.96;100.00;100512.72;4898195;29;20054;-70
2023/08/19 06:44:43;;;;;;;14.35;4.07;;;;;;;20.12;100.00;100512.97;4885788;29;20164;-70
2023/08/19 06:47:52;;;;;;;7.45;3.60;;;;;;;20.27;100.00;100516.03;4897550;29;20050;-70
2023/08/19 06:50:55;;;;;;;14.65;4.75;;;;;;;20.35;100.00;100518.78;4897981;29;20077;-70
2023/08/19 06:53:59;;;;;;;10.20;3.63;;;;;;;20.50;100.00;100526.31;4897780;29;20474;-70
2023/08/19 06:57:09;;;;;;;9.98;3.70;;;;;;;20.58;100.00;100524.66;4897339;29;20529;-70
2023/08/19 07:00:13;;;;;;;9.10;3.67;;;;;;;20.75;100.00;100530.19;4897867;29;20056;-70
2023/08/19 07:03:18;;;;;;;12.15;4.18;;;;;;;20.85;100.00;100515.84;4897947;29;20051;-69
2023/08/19 07:06:22;;;;;;;12.15;4.05;;;;;;;21.00;99.21;100518.88;4898178;29;20117;-69
2023/08/19 07:09:25;;;;;;;8.75;4.28;;;;;;;21.04;100.00;100520.25;4897515;29;20533;-70
2023/08/19 07:12:29;;;;;;;6.68;3.20;;;;;;;21.18;99.98;100515.41;4897602;29;20574;-70
2023/08/19 07:15:32;;;;;;;11.10;4.22;;;;;;;21.31;98.47;100514.09;4897039;29;20064;-70
2023/08/19 07:18:39;;;;;;;8.88;3.08;;;;;;;21.46;98.03;100525.06;4897504;29;20056;-70
2023/08/19 07:21:46;;;;;;;12.13;4.50;;;;;;;21.62;97.50;100520.88;4897304;29;20521;-69
2023/08/19 07:24:52;;;;;;;7.68;3.10;;;;;;;21.76;97.60;100525.66;4898080;29;20147;-70
2023/08/19 07:28:03;;;;;;;8.00;2.90;;;;;;;21.87;95.88;100512.13;4884824;29;20071;-69
2023/08/19 07:31:10;;;;;;;10.93;3.45;;;;;;;22.06;95.57;100511.13;4895822;29;20047;-73
2023/08/19 07:34:13;;;;;;;7.13;3.15;;;;;;;22.20;94.72;100518.56;4896919;29;20061;-78
2023/08/19 07:37:16;;;;;;;8.32;3.50;;;;;;;22.35;93.60;100516.19;4887635;29;20060;-77
2023/08/19 07:40:20;;;;;;;7.20;3.30;;;;;;;22.49;91.28;100520.94;4877860;29;20109;-77
2023/08/19 07:43:26;;;;;;;8.63;2.80;;;;;;;22.61;90.68;100526.00;4866337;29;20116;-77
2023/08/19 07:47:27;;;;;;;7.97;3.33;;;;;;;22.74;88.76;100515.72;4878673;29;20067;-77
2023/08/19 07:50:37;;;;;;;5.90;3.08;;;;;;;22.90;88.23;100513.13;4865517;29;20056;-76
2023/08/19 07:53:40;;;;;;;10.57;2.53;;;;;;;23.01;86.96;100512.06;4877770;29;20076;-77
2023/08/19 07:56:46;;;;;;;6.45;2.72;;;;;;;23.10;86.15;100510.22;4878169;29;20051;-76
2023/08/19 07:59:49;;;;;;;5.50;3.17;;;;;;;23.18;85.61;100510.28;4865617;29;20575;-76
2023/08/19 08:02:52;;;;;;;6.30;2.72;;;;;;;23.21;85.13;100516.09;4865643;29;20143;-76
2023/08/19 08:05:56;;;;;;;6.25;2.45;;;;;;;23.24;85.09;100517.63;4877910;29;20044;-76
2023/08/19 08:08:59;;;;;;;10.20;2.70;;;;;;;23.24;83.86;100516.78;4878078;29;20125;-76
2023/08/19 08:12:03;;;;;;;6.93;2.83;;;;;;;23.28;84.00;100513.63;4878084;29;20132;-76
2023/08/19 08:15:10;;;;;;;8.18;3.00;;;;;;;23.33;83.84;100513.97;4876422;29;20052;-76
2023/08/19 08:18:14;;;;;;;7.03;2.70;;;;;;;23.37;84.19;100523.31;4875825;29;20056;-75
2023/08/19 08:21:19;;;;;;;10.05;2.75;;;;;;;23.39;83.94;100509.84;4863746;29;20403;-75
2023/08/19 08:24:23;;;;;;;7.80;2.50;;;;;;;23.39;83.96;100513.34;4874958;29;20105;-75
2023/08/19 08:27:26;;;;;;;7.03;2.42;;;;;;;23.41;84.28;100513.16;4864964;29;20056;-76
2023/08/19 08:30:29;;;;;;;6.97;3.10;;;;;;;23.43;85.44;100517.34;4877257;29;20509;-75
2023/08/19 08:33:33;;;;;;;8.80;3.13;;;;;;;23.49;85.51;100515.00;4877730;29;20124;-75
2023/08/19 08:36:36;;;;;;;8.50;3.28;;;;;;;23.46;85.02;100512.69;4877439;29;20052;-75
2023/08/19 08:39:39;;;;;;;9.85;3.03;;;;;;;23.48;85.16;100505.31;4870870;29;20044;-75
2023/08/19 08:42:45;;;;;;;7.18;2.90;;;;;;;23.49;84.81;100504.34;4879595;29;20060;-76
2023/08/19 08:45:51;;;;;;;6.85;2.90;;;;;;;23.53;85.65;100506.50;4885811;29;20091;-76
2023/08/19 08:48:58;;;;;;;6.13;2.53;;;;;;;23.54;85.06;100505.50;4875570;29;20083;-76
2023/08/19 08:52:01;;;;;;;4.95;2.70;;;;;;;23.62;84.93;100504.69;4884952;29;20399;-76
2023/08/19 08:55:05;;;;;;;8.68;3.10;;;;;;;23.66;84.34;100508.69;4886977;29;20050;-76
2023/08/19 08:58:09;;;;;;;8.23;3.53;;;;;;;23.64;83.58;100508.00;4886036;29;20048;-76
2023/08/19 09:01:16;;;;;;;15.05;2.85;;;;;;;23.67;83.92;100508.53;4886106;29;20044;-77
2023/08/19 09:04:23;;;;;;;8.32;3.13;;;;;;;23.71;85.04;100519.75;4887014;29;20119;-76
2023/08/19 09:41:42;;;;;;;6.32;3.30;;;;;;;24.50;78.03;100514.69;5084733;28;20514;-75
2023/08/19 10:45:19;;;;;;;6.97;3.15;;;;;;;26.10;74.74;100543.63;5161157;27;20757;-69
2023/08/19 10:48:33;;;;;;;6.20;2.97;;;;;;;26.09;73.71;100552.66;5134639;27;20556;-70
2023/08/19 10:52:02;;;;;;;6.95;3.38;;;;;;;26.13;74.96;100562.03;5139812;27;20037;-70
2023/08/19 10:55:06;;;;;;;6.35;2.88;;;;;;;26.15;74.89;100559.16;5138743;27;20111;-71
2023/08/19 10:58:10;;;;;;;9.73;3.40;;;;;;;26.16;76.01;100561.69;5141760;27;20030;-70
2023/08/19 11:01:20;;;;;;;5.45;2.50;;;;;;;26.18;75.63;100570.34;5138768;27;20042;-69
2023/08/19 11:04:28;;;;;;;6.20;3.30;;;;;;;26.21;74.40;100559.25;5137280;27;20041;-72
2023/08/19 11:08:22;;;;;;;5.40;2.78;;;;;;;26.35;76.50;100572.88;5138041;27;20054;-72
2023/08/19 11:11:26;;;;;;;6.22;2.70;;;;;;;26.47;77.33;100570.59;5140342;27;20120;-72
2023/08/19 11:14:29;;;;;;;5.68;3.53;;;;;;;26.52;78.71;100566.38;5138946;27;20130;-75
2023/08/19 11:17:34;;;;;;;7.35;2.90;;;;;;;26.63;79.81;100573.97;5141664;27;20038;-75
2023/08/19 11:20:39;;;;;;;5.45;2.90;;;;;;;26.69;77.78;100568.91;5137368;27;20104;-75
2023/08/19 11:23:42;;;;;;;6.68;3.10;;;;;;;26.74;76.79;100563.78;5137709;27;20054;-76
2023/08/19 11:26:48;;;;;;;7.57;3.50;;;;;;;26.81;75.29;100562.06;5138858;27;20176;-75
2023/08/19 11:29:51;;;;;;;10.23;3.33;;;;;;;26.89;73.68;100562.78;5138785;27;20119;-76
2023/08/19 11:32:56;;;;;;;5.45;3.08;;;;;;;27.09;73.30;100568.41;5139586;27;20038;-78
2023/08/19 11:35:59;;;;;;;10.65;2.97;;;;;;;27.19;71.66;100572.69;5125015;27;20139;-78
2023/08/19 11:39:04;;;;;;;14.40;3.33;;;;;;;27.25;70.59;100580.84;5117171;28;20061;-80
2023/08/19 11:42:11;;;;;;;7.78;3.53;;;;;;;27.29;70.75;100574.06;5117372;28;20051;-74
2023/08/19 11:45:14;;;;;;;9.90;3.38;;;;;;;27.35;70.74;100581.38;5108856;28;20085;-75
2023/08/19 11:48:18;;;;;;;6.85;3.15;;;;;;;27.43;69.54;100575.03;5104989;28;20077;-75
2023/08/19 11:51:23;;;;;;;6.95;2.90;;;;;;;27.55;69.24;100575.38;5102755;28;20071;-81
2023/08/19 11:54:27;;;;;;;9.00;3.28;;;;;;;27.66;69.15;100574.88;5103566;28;20055;-77
2023/08/19 11:57:35;;;;;;;8.32;3.45;;;;;;;27.78;69.69;100584.13;5103834;28;20557;-77
2023/08/19 12:00:42;;;;;;;7.93;3.13;;;;;;;27.88;67.65;100583.81;5099365;28;20059;-78
2023/08/19 12:03:48;;;;;;;8.57;2.80;;;;;;;27.91;66.82;100594.19;5105383;28;20412;-78
2023/08/19 12:14:18;;;;;;;;;;;;;;;;;;;;;
2023/08/19 12:17:22;;;;;;;7.05;3.30;;;;;;;27.78;68.13;100604.78;4897604;29;20133;-84
2023/08/19 12:20:36;;;;;;;10.43;3.65;;;;;;;27.74;67.83;100611.53;4899493;29;20048;-83
2023/08/19 12:23:40;;;;;;;9.10;3.35;;;;;;;27.79;68.04;100611.81;4898738;29;20084;-84
2023/08/19 12:26:55;;;;;;;7.97;2.97;;;;;;;27.85;67.64;100611.06;4899232;29;20043;-85
2023/08/19 12:30:07;;;;;;;8.02;3.15;;;;;;;27.93;70.84;100610.94;4898432;29;20044;-84
2023/08/19 12:43:46;;;;;;;7.55;3.97;;;;;;;28.03;71.56;100614.16;6259297;22;1303875;-78
2023/08/19 12:47:16;;;;;;;6.80;3.70;;;;;;;28.03;70.99;100616.00;6314567;22;20025;-78
2023/08/19 12:50:23;;;;;;;6.03;2.85;;;;;;;28.03;69.20;100611.47;6295350;22;20076;-77
2023/08/19 12:53:27;;;;;;;6.05;2.60;;;;;;;28.10;70.01;100621.44;6314260;22;20084;-78
2023/08/19 12:56:30;;;;;;;5.88;3.00;;;;;;;28.05;73.19;100630.09;6314441;22;20044;-79
2023/08/19 13:06:57;;;;;;;8.52;4.38;;;;;;;27.94;70.49;100669.03;6296213;22;20019;-80
2023/08/19 13:10:00;;;;;;;11.75;4.20;;;;;;;27.97;68.50;100665.97;6313934;22;20026;-77
2023/08/19 13:13:05;;;;;;;7.82;3.20;;;;;;;28.12;67.20;100678.53;6313799;22;20099;-77
2023/08/19 13:16:08;;;;;;;6.90;3.40;;;;;;;28.36;63.70;100693.44;6313980;22;20053;-77
2023/08/19 13:19:12;;;;;;;6.75;3.53;;;;;;;28.61;63.15;100691.22;6313793;22;20360;-79
2023/08/19 13:22:18;;;;;;;9.48;3.70;;;;;;;28.69;61.99;100683.03;6313929;22;20069;-79
2023/08/19 13:25:21;;;;;;;9.85;4.32;;;;;;;28.62;62.44;100680.28;6313677;22;20352;-75
2023/08/19 13:28:24;;;;;;;11.30;5.57;;;;;;;28.50;64.13;100679.97;6313254;22;20100;-71
2023/08/19 13:31:28;;;;;;;25.80;10.95;;;;;;;28.34;65.21;100674.81;6314208;22;20098;-76
2023/08/19 13:34:32;;;;;;;10.15;3.80;;;;;;;28.21;65.37;100680.09;6313120;22;20469;-73
2023/08/19 13:37:35;;;;;;;8.00;3.90;;;;;;;28.12;64.86;100691.97;6313625;22;20479;-72
2023/08/19 13:40:38;;;;;;;12.43;4.07;;;;;;;28.04;65.18;100688.38;6314128;22;20406;-73
2023/08/19 13:43:41;;;;;;;10.50;3.90;;;;;;;28.00;66.08;100700.53;6309108;22;20069;-71
2023/08/19 13:46:46;;;;;;;9.63;5.47;;;;;;;27.96;68.97;100696.56;6307098;22;20026;-72
2023/08/19 13:49:49;;;;;;;8.30;4.13;;;;;;;27.94;75.46;100682.47;6307351;22;20034;-72
2023/08/19 13:52:53;;;;;;;8.88;3.42;;;;;;;27.93;72.97;100694.25;6307016;22;20514;-74
2023/08/19 13:55:56;;;;;;;8.10;3.30;;;;;;;27.99;75.38;100706.94;6307162;22;20021;-72
2023/08/19 13:58:59;;;;;;;10.27;4.20;;;;;;;27.93;75.16;100699.63;6306911;22;20034;-72
2023/08/19 14:02:02;;;;;;;6.95;3.20;;;;;;;28.01;76.34;100696.81;6307258;22;20390;-76
2023/08/19 14:05:09;;;;;;;13.55;3.83;;;;;;;28.29;74.64;100704.13;6306638;22;20025;-74
2023/08/19 14:08:12;;;;;;;7.50;3.42;;;;;;;28.72;74.87;100709.53;6306910;22;20076;-73
2023/08/19 14:11:18;;;;;;;6.10;3.42;;;;;;;29.34;71.07;100706.03;6306804;22;20348;-77
2023/08/19 14:14:21;;;;;;;8.38;3.25;;;;;;;29.30;70.38;100704.78;6287887;22;20026;-74
2023/08/19 14:17:28;;;;;;;10.60;3.88;;;;;;;29.12;71.83;100704.47;6306946;22;20026;-88
2023/08/19 14:20:31;;;;;;;12.40;3.78;;;;;;;28.86;70.32;100708.59;6306628;22;20038;-82
2023/08/19 14:23:36;;;;;;;11.50;3.60;;;;;;;28.79;71.31;100705.03;6306774;22;20038;-77
2023/08/19 14:26:40;;;;;;;10.30;3.38;;;;;;;28.65;67.94;100700.56;6305535;22;20073;-75
2023/08/19 14:29:43;;;;;;;10.80;3.72;;;;;;;28.76;68.92;100696.53;6306914;22;20080;-75
2023/08/19 14:32:47;;;;;;;12.50;3.53;;;;;;;28.62;66.89;100699.13;6306144;22;20152;-75
2023/08/19 14:35:53;;;;;;;8.90;3.53;;;;;;;28.45;65.43;100714.66;6306530;22;20026;-74
2023/08/19 14:38:56;;;;;;;8.18;3.00;;;;;;;28.58;66.17;100721.19;6287409;22;20056;-73
2023/08/19 14:41:59;;;;;;;7.65;3.28;;;;;;;28.54;69.17;100722.63;6287309;22;20022;-74
2023/08/19 14:45:03;;;;;;;9.15;3.33;;;;;;;28.42;71.30;100720.44;6306310;22;20026;-74
2023/08/19 14:48:06;;;;;;;10.93;3.55;;;;;;;28.20;73.36;100718.72;6306195;22;20034;-73
2023/08/19 14:51:10;;;;;;;6.10;3.45;;;;;;;28.08;73.23;100712.19;6306284;22;20069;-74
2023/08/19 14:54:14;;;;;;;11.52;3.75;;;;;;;27.89;80.86;100714.47;6305888;22;20121;-74
2023/08/19 14:57:17;;;;;;;9.57;3.58;;;;;;;27.69;81.07;100718.72;6306058;22;20125;-78
2023/08/19 15:00:20;;;;;;;5.05;3.20;;;;;;;27.62;80.11;100728.56;6305992;22;20095;-76
2023/08/19 15:03:24;;;;;;;11.60;3.60;;;;;;;27.55;80.36;100728.47;6306147;22;20092;-76
2023/08/19 15:06:27;;;;;;;13.82;4.00;;;;;;;27.49;82.93;100740.78;6305593;22;20053;-76
2023/08/19 15:09:31;;;;;;;7.50;3.70;;;;;;;27.44;82.82;100759.31;6306319;22;20084;-76
2023/08/19 15:12:34;;;;;;;7.60;3.95;;;;;;;26.97;75.73;100794.50;6305818;22;20026;-74
2023/08/19 15:15:38;;;;;;;7.72;3.53;;;;;;;26.83;74.56;100785.34;6305603;22;20038;-75
2023/08/19 15:18:42;;;;;;;7.43;4.20;;;;;;;26.74;74.33;100786.44;6305569;22;20021;-77
2023/08/19 15:21:45;;;;;;;7.60;3.70;;;;;;;26.71;73.21;100789.47;6305484;22;20068;-78
2023/08/19 15:24:48;;;;;;;5.65;3.47;;;;;;;26.65;71.81;100778.47;6305645;22;20057;-78
2023/08/19 15:27:54;;;;;;;9.10;3.80;;;;;;;26.61;72.92;100765.56;6305349;22;20395;-77
2023/08/19 15:30:58;;;;;;;7.10;3.80;;;;;;;26.58;72.47;100755.19;6305100;22;20038;-77
2023/08/19 15:34:05;;;;;;;6.78;3.85;;;;;;;26.53;72.39;100723.56;6305222;22;20025;-78
2023/08/19 15:37:14;;;;;;;9.32;3.25;;;;;;;26.53;73.11;100728.94;6305616;22;20360;-77
2023/08/19 15:40:18;;;;;;;6.32;2.78;;;;;;;26.49;72.77;100741.03;6305180;22;20057;-77
2023/08/19 15:43:21;;;;;;;12.98;3.45;;;;;;;26.39;73.90;100759.19;6305138;22;20069;-77
2023/08/19 15:46:24;;;;;;;8.07;3.00;;;;;;;26.16;74.14;100788.63;6305182;22;20030;-77
2023/08/19 15:49:29;;;;;;;4.85;2.75;;;;;;;26.04;72.57;100801.59;6305220;22;20122;-76
2023/08/19 15:52:32;;;;;;;5.30;3.30;;;;;;;26.01;71.11;100804.63;6305303;22;20068;-75
2023/08/19 15:55:35;;;;;;;9.00;2.50;;;;;;;25.98;70.09;100791.56;6304859;22;20104;-76
2023/08/19 15:58:45;;;;;;;9.35;2.90;;;;;;;26.01;70.54;100801.09;6305281;22;20446;-76
2023/08/19 16:01:50;;;;;;;5.80;2.45;;;;;;;25.98;71.21;100818.34;6304944;22;20460;-76
2023/08/19 16:04:54;;;;;;;4.80;2.35;;;;;;;25.88;71.55;100823.09;6304942;22;20026;-77
2023/08/19 16:07:58;;;;;;;8.85;2.40;;;;;;;25.83;72.88;100817.41;6305352;22;20061;-76
2023/08/19 16:11:03;;;;;;;8.98;3.17;;;;;;;25.78;74.43;100825.06;6305215;22;20124;-75
2023/08/19 16:14:07;;;;;;;4.93;2.70;;;;;;;25.68;76.78;100825.28;6305221;22;20034;-68
2023/08/19 16:17:10;;;;;;;4.55;2.28;;;;;;;25.59;77.26;100824.47;6305315;22;20353;-67
2023/08/19 16:20:29;;;;;;;4.90;2.30;;;;;;;25.55;77.86;100812.41;6304600;22;20113;-67
2023/08/19 16:23:33;;;;;;;7.80;2.75;;;;;;;25.54;77.22;100794.69;6305425;22;20109;-67
2023/08/19 16:26:39;;;;;;;9.50;3.10;;;;;;;25.48;79.41;100784.66;6305404;22;20100;-67
2023/08/19 16:29:42;;;;;;;8.38;2.75;;;;;;;25.43;80.67;100816.44;6305326;22;20029;-67
2023/08/19 16:32:46;;;;;;;8.40;2.80;;;;;;;25.21;79.76;100828.72;6286619;22;20029;-67
2023/08/19 16:35:56;;;;;;;6.28;2.60;;;;;;;25.15;81.21;100829.38;6305521;22;20022;-67
2023/08/19 16:39:00;;;;;;;11.98;2.95;;;;;;;25.05;80.95;100835.69;6305495;22;20108;-67
2023/08/19 16:42:03;;;;;;;8.02;2.85;;;;;;;25.01;82.32;100837.00;6305148;22;20106;-67
2023/08/19 16:45:07;;;;;;;11.20;2.97;;;;;;;24.92;83.18;100823.81;6305007;22;20030;-67